LiveATC.Net - Listen to live air traffic control over the Internet!


ICAO: SBLO  IATA: LDB   Airport: Londrina Airport
City: Londrina
Country: Brazil   Continent: South America
SBLO METAR Weather: SBLO 171900Z 07003KT 9999 SCT030 27/12 Q1022
SBLO ADS-B Flight Tracking  (ADSBExchange)
SBLO Flight Activity (FlightAware)

SBLO Twr/App/Center
Feed Status: UP   Listeners: 5
Listen in your browser - HTML5 player (in browser, HTML5)
Click here to listen with your own player (launches your MP3 player)
Archive Access: SBLO Twr/App/Center
FacilityFrequency
Curitiba Center125.800
Curitiba Center126.950
Curitiba Center128.350
Curitiba Center135.100
Emergency/Guard121.500
Londrina Approach129.700
Londrina Tower118.400
UNICOM123.450
TMA Londrina Blog


NOTICE

Unauthorized use prohibited. See LiveATC.net Terms of Service


Airport/ARTCC Code
Frequency Search
(e.g., 124.400, 128.75)
Site-wide search
 


Browse Feeds
Top 50 Feeds
HF Oceanic Feeds
Coverage Map
Bad Weather Areas

LiveATC FAQ

Increase Coverage

Contact LiveATC.net
Press Inquiries

LiveATC on iPhone
LiveATC on Android

LiveATC Mobile
(Mobile browser)

ATC Audio Archives
Interesting Recordings

LiveATC Forums


Home Page
About LiveATC.net


Terms of Use
Privacy Policy

AIRMETs/SIGMETs

FAA Airport Status
NAS Status
Arrival Demand


Server Software By:
Icecast.org
Liquidsoap